sensor_id;sensor_type;location;lat;lon;timestamp;pressure;altitude;pressure_sealevel;temperature;humidity
48964;BME280;34776;48.180;16.420;2023-04-07T00:02:22;99848.78;;;7.43;37.35
48964;BME280;34776;48.180;16.420;2023-04-07T00:04:48;99847.19;;;7.39;37.50
48964;BME280;34776;48.180;16.420;2023-04-07T00:07:13;99846.56;;;7.32;37.70
48964;BME280;34776;48.180;16.420;2023-04-07T00:09:39;99850.22;;;7.28;37.68
48964;BME280;34776;48.180;16.420;2023-04-07T00:12:04;99849.47;;;7.24;37.73
48964;BME280;34776;48.180;16.420;2023-04-07T00:14:29;99844.13;;;7.26;37.72
48964;BME280;34776;48.180;16.420;2023-04-07T00:16:55;99850.13;;;7.31;37.93
48964;BME280;34776;48.180;16.420;2023-04-07T00:19:20;99837.72;;;7.33;37.57
48964;BME280;34776;48.180;16.420;2023-04-07T00:21:46;99838.63;;;7.32;37.60
48964;BME280;34776;48.180;16.420;2023-04-07T00:24:11;99843.09;;;7.30;37.66
48964;BME280;34776;48.180;16.420;2023-04-07T00:26:37;99838.63;;;7.32;37.79
48964;BME280;34776;48.180;16.420;2023-04-07T00:29:02;99841.25;;;7.32;37.74
48964;BME280;34776;48.180;16.420;2023-04-07T00:31:30;99831.53;;;7.32;37.66
48964;BME280;34776;48.180;16.420;2023-04-07T00:33:57;99835.06;;;7.33;37.68
48964;BME280;34776;48.180;16.420;2023-04-07T00:36:22;99834.13;;;7.34;37.74
48964;BME280;34776;48.180;16.420;2023-04-07T00:38:48;99835.75;;;7.38;37.58
48964;BME280;34776;48.180;16.420;2023-04-07T00:41:13;99834.13;;;7.34;37.63
48964;BME280;34776;48.180;16.420;2023-04-07T00:43:38;99835.88;;;7.35;37.77
48964;BME280;34776;48.180;16.420;2023-04-07T00:46:04;99832.31;;;7.36;37.49
48964;BME280;34776;48.180;16.420;2023-04-07T00:48:30;99827.00;;;7.36;37.70
48964;BME280;34776;48.180;16.420;2023-04-07T00:50:55;99823.56;;;7.34;37.75
48964;BME280;34776;48.180;16.420;2023-04-07T00:53:21;99827.94;;;7.35;37.60
48964;BME280;34776;48.180;16.420;2023-04-07T00:55:46;99828.75;;;7.37;37.70
48964;BME280;34776;48.180;16.420;2023-04-07T00:58:11;99825.19;;;7.38;37.61
48964;BME280;34776;48.180;16.420;2023-04-07T01:00:42;99823.56;;;7.34;37.74
48964;BME280;34776;48.180;16.420;2023-04-07T01:03:19;99816.56;;;7.33;37.92
48964;BME280;34776;48.180;16.420;2023-04-07T01:05:58;99813.97;;;7.31;37.95
48964;BME280;34776;48.180;16.420;2023-04-07T01:13:48;99814.97;;;7.29;38.00
48964;BME280;34776;48.180;16.420;2023-04-07T01:18:56;99808.06;;;7.25;37.78
48964;BME280;34776;48.180;16.420;2023-04-07T01:21:25;99810.63;;;7.26;37.82
48964;BME280;34776;48.180;16.420;2023-04-07T01:27:24;99811.63;;;7.24;38.06
48964;BME280;34776;48.180;16.420;2023-04-07T01:30:00;99804.66;;;7.21;37.98
48964;BME280;34776;48.180;16.420;2023-04-07T01:32:26;99797.81;;;7.16;37.93
48964;BME280;34776;48.180;16.420;2023-04-07T01:34:53;99794.28;;;7.17;37.81
48964;BME280;34776;48.180;16.420;2023-04-07T01:37:20;99799.78;;;7.10;37.96
48964;BME280;34776;48.180;16.420;2023-04-07T01:39:45;99796.41;;;7.07;38.08
48964;BME280;34776;48.180;16.420;2023-04-07T01:42:11;99801.84;;;7.02;38.22
48964;BME280;34776;48.180;16.420;2023-04-07T01:44:37;99796.44;;;7.05;38.16
48964;BME280;34776;48.180;16.420;2023-04-07T01:47:03;99795.50;;;7.08;38.08
48964;BME280;34776;48.180;16.420;2023-04-07T01:49:30;99798.06;;;7.09;38.00
48964;BME280;34776;48.180;16.420;2023-04-07T01:51:56;99792.66;;;7.13;38.09
48964;BME280;34776;48.180;16.420;2023-04-07T01:54:22;99785.66;;;7.11;38.01
48964;BME280;34776;48.180;16.420;2023-04-07T01:56:48;99784.03;;;7.07;38.14
48964;BME280;34776;48.180;16.420;2023-04-07T01:59:13;99802.59;;;7.06;38.10
48964;BME280;34776;48.180;16.420;2023-04-07T02:01:39;99791.06;;;7.08;38.09
48964;BME280;34776;48.180;16.420;2023-04-07T02:04:27;99784.78;;;7.11;38.44
48964;BME280;34776;48.180;16.420;2023-04-07T02:07:00;99789.09;;;7.14;38.13
48964;BME280;34776;48.180;16.420;2023-04-07T02:09:30;99789.09;;;7.14;38.23
48964;BME280;34776;48.180;16.420;2023-04-07T02:11:59;99794.50;;;7.10;38.18
48964;BME280;34776;48.180;16.420;2023-04-07T02:14:26;99790.25;;;7.06;38.28
48964;BME280;34776;48.180;16.420;2023-04-07T02:16:52;99784.13;;;7.06;38.28
48964;BME280;34776;48.180;16.420;2023-04-07T02:19:18;99783.31;;;7.04;38.28
48964;BME280;34776;48.180;16.420;2023-04-07T02:21:44;99791.28;;;7.02;38.34
48964;BME280;34776;48.180;16.420;2023-04-07T02:24:11;99797.47;;;7.01;38.54
48964;BME280;34776;48.180;16.420;2023-04-07T02:26:36;99782.69;;;6.97;38.38
48964;BME280;34776;48.180;16.420;2023-04-07T02:29:02;99784.63;;;6.92;38.46
48964;BME280;34776;48.180;16.420;2023-04-07T02:31:28;99790.88;;;6.89;38.67
48964;BME280;34776;48.180;16.420;2023-04-07T02:33:53;99789.91;;;6.92;38.50
48964;BME280;34776;48.180;16.420;2023-04-07T02:36:19;99782.78;;;6.94;38.56
48964;BME280;34776;48.180;16.420;2023-04-07T02:38:44;99783.72;;;6.93;38.36
48964;BME280;34776;48.180;16.420;2023-04-07T02:41:09;99782.91;;;6.91;38.69
48964;BME280;34776;48.180;16.420;2023-04-07T02:43:35;99787.44;;;6.87;38.66
48964;BME280;34776;48.180;16.420;2023-04-07T02:46:00;99789.13;;;6.88;38.64
48964;BME280;34776;48.180;16.420;2023-04-07T02:48:26;99786.56;;;6.87;38.66
48964;BME280;34776;48.180;16.420;2023-04-07T02:50:51;99781.50;;;6.81;38.67
48964;BME280;34776;48.180;16.420;2023-04-07T02:53:16;99784.25;;;6.78;38.89
48964;BME280;34776;48.180;16.420;2023-04-07T02:55:41;99781.75;;;6.75;38.79
48964;BME280;34776;48.180;16.420;2023-04-07T02:58:07;99777.44;;;6.72;38.98
48964;BME280;34776;48.180;16.420;2023-04-07T03:00:33;99771.50;;;6.65;39.06
48964;BME280;34776;48.180;16.420;2023-04-07T03:02:58;99766.41;;;6.59;39.00
48964;BME280;34776;48.180;16.420;2023-04-07T03:05:23;99769.19;;;6.56;39.18
48964;BME280;34776;48.180;16.420;2023-04-07T03:07:49;99772.84;;;6.52;39.27
48964;BME280;34776;48.180;16.420;2023-04-07T03:10:14;99767.69;;;6.49;39.10
48964;BME280;34776;48.180;16.420;2023-04-07T03:12:40;99770.34;;;6.49;39.25
48964;BME280;34776;48.180;16.420;2023-04-07T03:15:06;99770.44;;;6.46;39.09
48964;BME280;34776;48.180;16.420;2023-04-07T03:17:32;99770.44;;;6.46;39.25
48964;BME280;34776;48.180;16.420;2023-04-07T03:19:57;99763.44;;;6.45;39.11
48964;BME280;34776;48.180;16.420;2023-04-07T03:22:22;99772.38;;;6.41;39.20
48964;BME280;34776;48.180;16.420;2023-04-07T03:24:48;99777.75;;;6.38;39.43
48964;BME280;34776;48.180;16.420;2023-04-07T03:27:13;99771.66;;;6.36;39.42
48964;BME280;34776;48.180;16.420;2023-04-07T03:29:39;99772.59;;;6.35;39.36
48964;BME280;34776;48.180;16.420;2023-04-07T03:32:04;99770.00;;;6.33;39.47
48964;BME280;34776;48.180;16.420;2023-04-07T03:34:29;99769.22;;;6.29;39.73
48964;BME280;34776;48.180;16.420;2023-04-07T03:36:55;99768.34;;;6.30;39.36
48964;BME280;34776;48.180;16.420;2023-04-07T03:39:20;99771.00;;;6.29;39.44
48964;BME280;34776;48.180;16.420;2023-04-07T03:41:45;99771.78;;;6.33;39.38
48964;BME280;34776;48.180;16.420;2023-04-07T03:44:11;99769.88;;;6.36;39.38
48964;BME280;34776;48.180;16.420;2023-04-07T03:46:36;99768.94;;;6.39;39.36
48964;BME280;34776;48.180;16.420;2023-04-07T03:49:02;99767.19;;;6.38;39.18
48964;BME280;34776;48.180;16.420;2023-04-07T03:51:27;99767.19;;;6.38;39.30
48964;BME280;34776;48.180;16.420;2023-04-07T03:53:52;99760.09;;;6.40;39.56
48964;BME280;34776;48.180;16.420;2023-04-07T03:56:18;99762.72;;;6.40;39.45
48964;BME280;34776;48.180;16.420;2023-04-07T03:58:44;99769.66;;;6.42;39.39
48964;BME280;34776;48.180;16.420;2023-04-07T04:01:10;99758.88;;;6.48;39.37
48964;BME280;34776;48.180;16.420;2023-04-07T04:03:36;99761.47;;;6.50;39.15
48964;BME280;34776;48.180;16.420;2023-04-07T04:06:01;99764.84;;;6.55;39.22
48964;BME280;34776;48.180;16.420;2023-04-07T04:08:26;99757.69;;;6.57;39.28
48964;BME280;34776;48.180;16.420;2023-04-07T04:10:52;99762.25;;;6.54;39.22
48964;BME280;34776;48.180;16.420;2023-04-07T04:13:17;99764.84;;;6.55;39.12
48964;BME280;34776;48.180;16.420;2023-04-07T04:15:42;99766.53;;;6.56;39.16
48964;BME280;34776;48.180;16.420;2023-04-07T04:18:08;99757.81;;;6.54;39.25
48964;BME280;34776;48.180;16.420;2023-04-07T04:20:33;99762.25;;;6.54;39.33
48964;BME280;34776;48.180;16.420;2023-04-07T04:22:58;99765.63;;;6.57;39.37
48964;BME280;34776;48.180;16.420;2023-04-07T04:25:24;99756.66;;;6.61;39.31
48964;BME280;34776;48.180;16.420;2023-04-07T04:27:49;99755.78;;;6.62;39.35
48964;BME280;34776;48.180;16.420;2023-04-07T04:30:15;99756.63;;;6.63;39.18
48964;BME280;34776;48.180;16.420;2023-04-07T04:32:40;99755.78;;;6.62;39.27
48964;BME280;34776;48.180;16.420;2023-04-07T04:35:06;99761.06;;;6.62;39.29
48964;BME280;34776;48.180;16.420;2023-04-07T04:37:31;99751.25;;;6.66;39.20
48964;BME280;34776;48.180;16.420;2023-04-07T04:39:57;99748.53;;;6.67;38.97
48964;BME280;34776;48.180;16.420;2023-04-07T04:42:22;99762.53;;;6.69;39.07
48964;BME280;34776;48.180;16.420;2023-04-07T04:44:47;99751.84;;;6.74;39.23
48964;BME280;34776;48.180;16.420;2023-04-07T04:47:13;99747.22;;;6.79;39.14
48964;BME280;34776;48.180;16.420;2023-04-07T04:49:39;99753.38;;;6.80;39.01
48964;BME280;34776;48.180;16.420;2023-04-07T04:52:06;99748.03;;;6.81;39.14
48964;BME280;34776;48.180;16.420;2023-04-07T04:54:32;99756.06;;;6.78;39.15
48964;BME280;34776;48.180;16.420;2023-04-07T04:56:58;99752.47;;;6.81;39.09
48964;BME280;34776;48.180;16.420;2023-04-07T04:59:23;99748.78;;;6.85;38.87
48964;BME280;34776;48.180;16.420;2023-04-07T05:01:51;99754.19;;;6.82;39.01
48964;BME280;34776;48.180;16.420;2023-04-07T05:04:17;99752.47;;;6.81;39.01
48964;BME280;34776;48.180;16.420;2023-04-07T05:06:43;99763.84;;;6.83;38.92
48964;BME280;34776;48.180;16.420;2023-04-07T05:09:08;99760.03;;;6.90;39.13
48964;BME280;34776;48.180;16.420;2023-04-07T05:11:33;99765.22;;;6.93;39.02
48964;BME280;34776;48.180;16.420;2023-04-07T05:13:59;99762.34;;;6.99;38.95
48964;BME280;34776;48.180;16.420;2023-04-07T05:16:24;99768.31;;;7.04;38.98
48964;BME280;34776;48.180;16.420;2023-04-07T05:18:49;99761.28;;;7.03;38.63
48964;BME280;34776;48.180;16.420;2023-04-07T05:21:15;99770.59;;;7.14;38.88
48964;BME280;34776;48.180;16.420;2023-04-07T05:23:40;99761.63;;;7.18;38.57
48964;BME280;34776;48.180;16.420;2023-04-07T05:26:05;99765.09;;;7.20;38.59
48964;BME280;34776;48.180;16.420;2023-04-07T05:28:31;99759.94;;;7.17;38.62
48964;BME280;34776;48.180;16.420;2023-04-07T05:30:56;99765.66;;;7.28;38.52
48964;BME280;34776;48.180;16.420;2023-04-07T05:33:21;99761.22;;;7.28;38.58
48964;BME280;34776;48.180;16.420;2023-04-07T05:35:47;99754.97;;;7.31;38.41
48964;BME280;34776;48.180;16.420;2023-04-07T05:38:12;99761.69;;;7.40;38.23
48964;BME280;34776;48.180;16.420;2023-04-07T05:40:39;99749.06;;;7.46;38.08
48964;BME280;34776;48.180;16.420;2023-04-07T05:43:05;99753.28;;;7.52;38.42
48964;BME280;34776;48.180;16.420;2023-04-07T05:45:30;99757.56;;;7.55;38.11
48964;BME280;34776;48.180;16.420;2023-04-07T05:47:55;99753.63;;;7.65;38.07
48964;BME280;34776;48.180;16.420;2023-04-07T05:50:20;99758.44;;;7.77;38.13
48964;BME280;34776;48.180;16.420;2023-04-07T05:52:46;99754.50;;;7.87;37.85
48964;BME280;34776;48.180;16.420;2023-04-07T05:55:11;99759.13;;;8.03;37.88
48964;BME280;34776;48.180;16.420;2023-04-07T05:57:36;99747.69;;;8.02;37.51
48964;BME280;34776;48.180;16.420;2023-04-07T06:00:02;99757.16;;;8.08;37.47
48964;BME280;34776;48.180;16.420;2023-04-07T06:02:28;99765.03;;;8.09;37.34
48964;BME280;34776;48.180;16.420;2023-04-07T06:04:54;99758.63;;;8.15;37.35
48964;BME280;34776;48.180;16.420;2023-04-07T06:07:20;99763.13;;;8.13;37.33
48964;BME280;34776;48.180;16.420;2023-04-07T06:09:45;99762.59;;;8.05;37.38
48964;BME280;34776;48.180;16.420;2023-04-07T06:12:11;99767.72;;;8.08;37.45
48964;BME280;34776;48.180;16.420;2023-04-07T06:14:37;99771.31;;;8.07;37.26
48964;BME280;34776;48.180;16.420;2023-04-07T06:17:02;99768.78;;;8.04;37.35
48964;BME280;34776;48.180;16.420;2023-04-07T06:19:28;99768.72;;;8.05;37.48
48964;BME280;34776;48.180;16.420;2023-04-07T06:21:53;99768.94;;;8.01;37.30
48964;BME280;34776;48.180;16.420;2023-04-07T06:24:21;99779.81;;;7.93;37.41
48964;BME280;34776;48.180;16.420;2023-04-07T06:26:51;99776.38;;;7.91;37.53
48964;BME280;34776;48.180;16.420;2023-04-07T06:29:16;99774.47;;;7.95;37.56
48964;BME280;34776;48.180;16.420;2023-04-07T06:31:41;99777.78;;;8.00;37.54
48964;BME280;34776;48.180;16.420;2023-04-07T06:34:07;99776.19;;;7.96;37.30
48964;BME280;34776;48.180;16.420;2023-04-07T06:36:33;99785.72;;;8.00;37.59
48964;BME280;34776;48.180;16.420;2023-04-07T06:38:58;99782.16;;;8.01;37.42
48964;BME280;34776;48.180;16.420;2023-04-07T06:41:24;99784.75;;;8.02;37.53
48964;BME280;34776;48.180;16.420;2023-04-07T06:43:49;99787.84;;;8.12;37.38
48964;BME280;34776;48.180;16.420;2023-04-07T06:46:18;99776.81;;;8.23;37.15
48964;BME280;34776;48.180;16.420;2023-04-07T06:48:44;99777.66;;;8.45;37.17
48964;BME280;34776;48.180;16.420;2023-04-07T06:51:10;99781.16;;;8.66;36.85
48964;BME280;34776;48.180;16.420;2023-04-07T06:53:35;99786.97;;;8.95;36.48
48964;BME280;34776;48.180;16.420;2023-04-07T06:56:09;99777.50;;;9.08;36.24
48964;BME280;34776;48.180;16.420;2023-04-07T06:58:36;99773.94;;;9.47;35.84
48964;BME280;34776;48.180;16.420;2023-04-07T07:01:02;99781.56;;;10.09;35.45
48964;BME280;34776;48.180;16.420;2023-04-07T07:03:28;99769.56;;;10.54;34.55
48964;BME280;34776;48.180;16.420;2023-04-07T07:05:54;99758.88;;;10.89;34.27
48964;BME280;34776;48.180;16.420;2023-04-07T07:08:23;99764.44;;;11.17;33.56
48964;BME280;34776;48.180;16.420;2023-04-07T07:10:49;99765.09;;;11.05;34.01
48964;BME280;34776;48.180;16.420;2023-04-07T07:13:14;99772.34;;;10.86;33.96
48964;BME280;34776;48.180;16.420;2023-04-07T07:15:40;99768.03;;;10.83;33.98
48964;BME280;34776;48.180;16.420;2023-04-07T07:18:05;99767.53;;;10.59;34.26
48964;BME280;34776;48.180;16.420;2023-04-07T07:20:31;99769.25;;;10.60;34.35
48964;BME280;34776;48.180;16.420;2023-04-07T07:22:56;99774.66;;;10.59;34.22
48964;BME280;34776;48.180;16.420;2023-04-07T07:25:22;99772.81;;;10.76;34.35
48964;BME280;34776;48.180;16.420;2023-04-07T07:27:50;99779.38;;;10.87;33.94
48964;BME280;34776;48.180;16.420;2023-04-07T07:30:19;99782.97;;;10.86;34.18
48964;BME280;34776;48.180;16.420;2023-04-07T07:32:44;99779.88;;;10.77;34.02
48964;BME280;34776;48.180;16.420;2023-04-07T07:35:10;99775.75;;;10.54;34.26
48964;BME280;34776;48.180;16.420;2023-04-07T07:37:35;99783.16;;;10.30;34.54
48964;BME280;34776;48.180;16.420;2023-04-07T07:40:01;99787.97;;;10.22;34.79
48964;BME280;34776;48.180;16.420;2023-04-07T07:42:26;99780.50;;;10.30;34.75
48964;BME280;34776;48.180;16.420;2023-04-07T07:44:52;99784.22;;;10.26;34.71
48964;BME280;34776;48.180;16.420;2023-04-07T07:47:17;99794.31;;;10.20;34.75
48964;BME280;34776;48.180;16.420;2023-04-07T07:49:42;99795.47;;;10.14;35.00
48964;BME280;34776;48.180;16.420;2023-04-07T07:52:08;99790.16;;;10.14;34.94
48964;BME280;34776;48.180;16.420;2023-04-07T07:54:33;99786.72;;;10.12;35.02
48964;BME280;34776;48.180;16.420;2023-04-07T07:56:58;99785.84;;;10.11;35.02
48964;BME280;34776;48.180;16.420;2023-04-07T07:59:24;99791.22;;;10.10;35.24
48964;BME280;34776;48.180;16.420;2023-04-07T08:01:49;99797.03;;;10.18;34.96
48964;BME280;34776;48.180;16.420;2023-04-07T08:04:14;99795.75;;;10.08;35.11
48964;BME280;34776;48.180;16.420;2023-04-07T08:06:40;99792.78;;;9.96;35.17
48964;BME280;34776;48.180;16.420;2023-04-07T08:09:06;99800.75;;;9.96;35.31
48964;BME280;34776;48.180;16.420;2023-04-07T08:11:31;99803.88;;;9.87;35.45
48964;BME280;34776;48.180;16.420;2023-04-07T08:13:57;99798.09;;;9.96;35.52
48964;BME280;34776;48.180;16.420;2023-04-07T08:16:22;99795.44;;;9.96;35.56
48964;BME280;34776;48.180;16.420;2023-04-07T08:18:48;99804.06;;;10.02;35.51
48964;BME280;34776;48.180;16.420;2023-04-07T08:21:15;99812.81;;;10.04;35.44
48964;BME280;34776;48.180;16.420;2023-04-07T08:23:41;99798.88;;;9.99;35.36
48964;BME280;34776;48.180;16.420;2023-04-07T08:26:06;99803.28;;;10.00;35.96
48964;BME280;34776;48.180;16.420;2023-04-07T08:28:32;99806.56;;;10.22;35.52
48964;BME280;34776;48.180;16.420;2023-04-07T08:30:57;99808.91;;;10.28;34.87
48964;BME280;34776;48.180;16.420;2023-04-07T08:33:22;99785.50;;;10.71;34.74
48964;BME280;34776;48.180;16.420;2023-04-07T08:35:48;99789.81;;;11.07;34.03
48964;BME280;34776;48.180;16.420;2023-04-07T08:38:14;99802.19;;;10.91;33.80
48964;BME280;34776;48.180;16.420;2023-04-07T08:40:39;99798.00;;;10.69;34.12
48964;BME280;34776;48.180;16.420;2023-04-07T08:43:07;99793.94;;;10.62;34.30
48964;BME280;34776;48.180;16.420;2023-04-07T08:45:37;99793.53;;;10.70;34.13
48964;BME280;34776;48.180;16.420;2023-04-07T08:48:12;99790.03;;;10.69;34.26
48964;BME280;34776;48.180;16.420;2023-04-07T08:50:43;99795.31;;;10.87;34.09
48964;BME280;34776;48.180;16.420;2023-04-07T08:53:11;99789.84;;;10.90;33.98
48964;BME280;34776;48.180;16.420;2023-04-07T08:55:40;99781.81;;;11.07;33.82
48964;BME280;34776;48.180;16.420;2023-04-07T08:58:05;99785.41;;;11.06;33.87
48964;BME280;34776;48.180;16.420;2023-04-07T09:00:38;99785.06;;;10.96;33.66
48964;BME280;34776;48.180;16.420;2023-04-07T09:03:04;99787.63;;;10.98;33.86
48964;BME280;34776;48.180;16.420;2023-04-07T09:05:30;99780.97;;;11.23;33.64
48964;BME280;34776;48.180;16.420;2023-04-07T09:07:56;99779.03;;;11.42;33.41
48964;BME280;34776;48.180;16.420;2023-04-07T09:10:21;99780.00;;;11.57;33.30
48964;BME280;34776;48.180;16.420;2023-04-07T09:12:47;99779.38;;;11.52;32.94
48964;BME280;34776;48.180;16.420;2023-04-07T09:15:13;99778.44;;;11.37;33.01
48964;BME280;34776;48.180;16.420;2023-04-07T09:17:38;99775.19;;;11.32;33.38
48964;BME280;34776;48.180;16.420;2023-04-07T09:20:04;99774.81;;;11.38;33.10
48964;BME280;34776;48.180;16.420;2023-04-07T09:22:38;99782.19;;;11.33;32.79
48964;BME280;34776;48.180;16.420;2023-04-07T09:25:21;99770.16;;;11.10;32.69
48964;BME280;34776;48.180;16.420;2023-04-07T09:28:02;99775.47;;;11.10;33.01
48964;BME280;34776;48.180;16.420;2023-04-07T09:30:29;99771.63;;;11.15;32.99
48964;BME280;34776;48.180;16.420;2023-04-07T09:32:56;99765.88;;;11.23;33.32
48964;BME280;34776;48.180;16.420;2023-04-07T09:35:22;99764.69;;;11.29;33.04
48964;BME280;34776;48.180;16.420;2023-04-07T09:38:08;99772.66;;;11.29;33.11
48964;BME280;34776;48.180;16.420;2023-04-07T09:40:34;99763.44;;;11.36;32.97
48964;BME280;34776;48.180;16.420;2023-04-07T09:43:02;99766.25;;;11.33;32.75
48964;BME280;34776;48.180;16.420;2023-04-07T09:45:29;99765.31;;;11.50;32.83
48964;BME280;34776;48.180;16.420;2023-04-07T09:47:56;99772.94;;;11.56;32.72
48964;BME280;34776;48.180;16.420;2023-04-07T09:50:32;99767.78;;;11.37;32.67
48964;BME280;34776;48.180;16.420;2023-04-07T09:52:59;99762.63;;;11.18;33.08
48964;BME280;34776;48.180;16.420;2023-04-07T09:55:26;99754.13;;;11.11;33.05
48964;BME280;34776;48.180;16.420;2023-04-07T09:57:53;99761.94;;;11.14;33.26
48964;BME280;34776;48.180;16.420;2023-04-07T10:00:22;99763.00;;;11.28;33.21
48964;BME280;34776;48.180;16.420;2023-04-07T10:02:48;99760.75;;;11.36;32.93
48964;BME280;34776;48.180;16.420;2023-04-07T10:05:15;99763.69;;;11.47;32.94
48964;BME280;34776;48.180;16.420;2023-04-07T10:07:41;99761.78;;;11.49;32.41
48964;BME280;34776;48.180;16.420;2023-04-07T10:10:07;99756.44;;;11.33;32.51
48964;BME280;34776;48.180;16.420;2023-04-07T10:12:33;99756.81;;;11.43;32.44
48964;BME280;34776;48.180;16.420;2023-04-07T10:14:59;99760.00;;;11.34;32.39
48964;BME280;34776;48.180;16.420;2023-04-07T10:17:27;99759.38;;;11.29;32.37
48964;BME280;34776;48.180;16.420;2023-04-07T10:19:53;99752.78;;;11.36;32.31
48964;BME280;34776;48.180;16.420;2023-04-07T10:22:20;99761.88;;;11.32;32.26
48964;BME280;34776;48.180;16.420;2023-04-07T10:25:02;99757.75;;;11.26;31.89
48964;BME280;34776;48.180;16.420;2023-04-07T10:27:33;99760.56;;;11.23;32.55
48964;BME280;34776;48.180;16.420;2023-04-07T10:30:00;99749.75;;;11.26;32.62
48964;BME280;34776;48.180;16.420;2023-04-07T10:32:28;99751.63;;;11.08;32.70
48964;BME280;34776;48.180;16.420;2023-04-07T10:37:19;99736.00;;;11.02;32.96
48964;BME280;34776;48.180;16.420;2023-04-07T10:40:32;99740.28;;;10.89;33.20
48964;BME280;34776;48.180;16.420;2023-04-07T10:45:05;99744.31;;;10.96;32.99
48964;BME280;34776;48.180;16.420;2023-04-07T10:47:30;99748.84;;;10.94;33.01
48964;BME280;34776;48.180;16.420;2023-04-07T10:52:37;99747.00;;;11.12;32.96
48964;BME280;34776;48.180;16.420;2023-04-07T10:55:34;99739.63;;;11.17;32.81
48964;BME280;34776;48.180;16.420;2023-04-07T10:58:25;99743.94;;;11.20;32.81
48964;BME280;34776;48.180;16.420;2023-04-07T11:03:23;99741.72;;;11.28;33.21
48964;BME280;34776;48.180;16.420;2023-04-07T11:05:48;99740.69;;;11.30;33.27
48964;BME280;34776;48.180;16.420;2023-04-07T11:08:14;99740.16;;;11.24;33.60
48964;BME280;34776;48.180;16.420;2023-04-07T11:10:39;99744.53;;;11.25;33.86
48964;BME280;34776;48.180;16.420;2023-04-07T11:13:11;99742.03;;;11.22;34.04
48964;BME280;34776;48.180;16.420;2023-04-07T11:15:37;99742.19;;;11.18;34.19
48964;BME280;34776;48.180;16.420;2023-04-07T11:20:42;99734.91;;;11.70;34.05
48964;BME280;34776;48.180;16.420;2023-04-07T11:23:07;99736.00;;;11.97;33.83
48964;BME280;34776;48.180;16.420;2023-04-07T11:25:33;99732.28;;;12.30;33.27
48964;BME280;34776;48.180;16.420;2023-04-07T11:28:00;99732.34;;;12.59;32.81
48964;BME280;34776;48.180;16.420;2023-04-07T11:30:25;99721.50;;;12.91;32.71
48964;BME280;34776;48.180;16.420;2023-04-07T11:32:50;99731.19;;;13.20;32.64
48964;BME280;34776;48.180;16.420;2023-04-07T11:35:16;99734.03;;;13.46;32.23
48964;BME280;34776;48.180;16.420;2023-04-07T11:37:41;99732.81;;;13.65;31.90
48964;BME280;34776;48.180;16.420;2023-04-07T11:40:07;99731.53;;;13.85;31.82
48964;BME280;34776;48.180;16.420;2023-04-07T11:42:37;99731.91;;;14.06;31.22
48964;BME280;34776;48.180;16.420;2023-04-07T11:45:03;99728.53;;;13.89;31.14
48964;BME280;34776;48.180;16.420;2023-04-07T11:47:36;99721.56;;;13.74;31.13
48964;BME280;34776;48.180;16.420;2023-04-07T11:50:01;99724.94;;;13.90;31.09
48964;BME280;34776;48.180;16.420;2023-04-07T11:52:27;99720.47;;;14.04;30.96
48964;BME280;34776;48.180;16.420;2023-04-07T11:54:52;99714.38;;;14.01;31.03
48964;BME280;34776;48.180;16.420;2023-04-07T11:57:25;99721.22;;;14.06;30.33
48964;BME280;34776;48.180;16.420;2023-04-07T12:00:08;99709.16;;;14.13;29.87
48964;BME280;34776;48.180;16.420;2023-04-07T12:02:35;99715.09;;;14.44;30.39
48964;BME280;34776;48.180;16.420;2023-04-07T12:05:01;99707.06;;;14.44;30.61
48964;BME280;34776;48.180;16.420;2023-04-07T12:07:26;99707.81;;;14.46;30.46
48964;BME280;34776;48.180;16.420;2023-04-07T12:09:53;99703.34;;;14.59;30.52
48964;BME280;34776;48.180;16.420;2023-04-07T12:12:26;99702.72;;;14.55;30.34
48964;BME280;34776;48.180;16.420;2023-04-07T12:14:52;99703.53;;;14.30;31.08
48964;BME280;34776;48.180;16.420;2023-04-07T12:17:23;99704.69;;;14.13;31.40
48964;BME280;34776;48.180;16.420;2023-04-07T12:19:49;99697.59;;;13.99;31.67
48964;BME280;34776;48.180;16.420;2023-04-07T12:22:14;99699.59;;;13.96;31.53
48964;BME280;34776;48.180;16.420;2023-04-07T12:24:39;99695.56;;;13.90;31.52
48964;BME280;34776;48.180;16.420;2023-04-07T12:27:05;99690.09;;;13.65;31.74
48964;BME280;34776;48.180;16.420;2023-04-07T12:29:30;99696.97;;;13.69;31.87
48964;BME280;34776;48.180;16.420;2023-04-07T12:31:56;99693.13;;;13.73;31.85
48964;BME280;34776;48.180;16.420;2023-04-07T12:34:21;99694.06;;;13.59;32.04
48964;BME280;34776;48.180;16.420;2023-04-07T12:36:47;99698.78;;;13.68;32.05
48964;BME280;34776;48.180;16.420;2023-04-07T12:39:12;99692.78;;;13.65;32.36
48964;BME280;34776;48.180;16.420;2023-04-07T12:41:38;99701.00;;;13.62;32.23
48964;BME280;34776;48.180;16.420;2023-04-07T12:44:04;99696.28;;;13.52;32.56
48964;BME280;34776;48.180;16.420;2023-04-07T12:46:30;99698.97;;;13.38;32.93
48964;BME280;34776;48.180;16.420;2023-04-07T12:48:55;99704.72;;;13.32;32.96
48964;BME280;34776;48.180;16.420;2023-04-07T12:51:20;99708.13;;;13.19;33.19
48964;BME280;34776;48.180;16.420;2023-04-07T12:53:46;99699.97;;;12.94;33.65
48964;BME280;34776;48.180;16.420;2023-04-07T12:56:12;99700.19;;;12.62;33.99
48964;BME280;34776;48.180;16.420;2023-04-07T12:58:38;99704.25;;;12.53;34.26
48964;BME280;34776;48.180;16.420;2023-04-07T13:01:04;99706.06;;;12.67;34.51
48964;BME280;34776;48.180;16.420;2023-04-07T13:03:30;99701.41;;;12.71;34.95
48964;BME280;34776;48.180;16.420;2023-04-07T13:05:55;99701.50;;;12.69;35.28
48964;BME280;34776;48.180;16.420;2023-04-07T13:08:25;99702.25;;;12.57;35.47
48964;BME280;34776;48.180;16.420;2023-04-07T13:10:52;99706.03;;;12.24;35.90
48964;BME280;34776;48.180;16.420;2023-04-07T13:13:17;99705.41;;;12.05;36.10
48964;BME280;34776;48.180;16.420;2023-04-07T13:15:43;99708.13;;;12.03;36.27
48964;BME280;34776;48.180;16.420;2023-04-07T13:18:08;99705.03;;;12.11;36.12